Abegall, Kentucky
Current Conditions -  °F | °C
As of 12:15 PM on Sunday 21 Dec 2014 (Local Time) from KFGX Reporting Station
Overcast Overcast  
Wind Chill: 26°   Ceiling: 1400
Heat Index: 32°   Visibility: 10mi
Dew Point: 27°   Wind: 6mph
Humidity: 82%   Direction: 90°E
Pressure: 30.28"   Gusts: NA
Location:  38.6546°N, 83.9578°W
Report Text: KFGX 211715Z AUTO 09005KT 10SM OVC014 00/M03 A3028 RMK AO2 T00001028
Loading
Personal Weather Stations






























Interactive Weather Map New forecast layout! Learn more

10-Day Weather Forecast

Advertisements
Track Severe Weather on mobile